首页
METAR-TAF:

METAR-TAF

机场 :

Sumburgh, 设德兰群岛, 苏格兰

纬度: 59-53N, 经度: 001-18W, 海拔: 5米

当前天气观测

该预报发布于37分钟前的00:50 UTC
风速5节,风向北转西北,在西转西北之间变化
温度 4°C
湿度 87%
气压 1016 hPa
能見度: 4100

METAR: EGPB 180050Z AUTO 33005KT 290V360 4100 RA SCT014/// BKN027/// 04/02 Q1016

时间: 01:27 (01:27 UTC)

预报

该预报发布于2小时和26分钟前的23:01 UTC
预报有效从18日的 00点(UTC)到 18日的 09点(UTC)
风速8节,风向北转西北
能见度10公里或以上
散云层高于2500英尺
几率 30% :
短暂存在
从 18日的 00点(UTC)到 18日的 09点(UTC)
能見度: 5000
多云层高于1000英尺
阵雨, 雪

TAF: EGPB 172301Z 1800/1809 33008KT 9999 SCT025 PROB30 TEMPO 1800/1809 5000 SHRASN BKN010

超过4000个机场的气象观测和天气预报(METAR&TAF报告)。

可查询的气象台以黄色和红色小点在地图上表示。

将鼠标移到小点上方,可查看气象台名称。

然后点击查看天气观测和预报。

如需切换地图:点击带黑十字的绿色按钮放大地图;点击带横线的绿色按钮缩小地图;或者点击绿色箭头查看邻近地区的地图。


METAR-TAF: